createdAt,value
2018-04-02T00:01:15.402Z,39.87
2018-04-02T00:03:42.952Z,38.67
2018-04-02T00:06:10.475Z,42.23
2018-04-02T00:08:38.050Z,45.53
2018-04-02T00:11:06.337Z,41.43
2018-04-02T00:13:38.813Z,42.73
2018-04-02T00:16:10.915Z,38.80
2018-04-02T00:18:38.703Z,38.33
2018-04-02T00:21:06.236Z,42.30
2018-04-02T00:23:34.589Z,42.13
2018-04-02T00:26:02.135Z,35.77
2018-04-02T00:28:30.428Z,43.03
2018-04-02T00:30:57.959Z,42.67
2018-04-02T00:33:25.488Z,40.87
2018-04-02T00:35:53.348Z,39.40
2018-04-02T00:38:21.488Z,37.97
2018-04-02T00:40:49.016Z,43.10
2018-04-02T00:43:16.546Z,40.00
2018-04-02T00:45:44.094Z,38.90
2018-04-02T00:48:11.631Z,39.80
2018-04-02T00:50:43.537Z,41.53
2018-04-02T00:53:11.052Z,44.23
2018-04-02T00:55:39.255Z,39.97
2018-04-02T00:58:08.070Z,42.60
2018-04-02T01:00:36.181Z,42.73
2018-04-02T01:03:04.488Z,38.57
2018-04-02T01:05:32.000Z,41.70
2018-04-02T01:08:00.764Z,39.30
2018-04-02T01:20:13.354Z,43.40
2018-04-02T01:22:40.874Z,47.07
2018-04-02T01:25:09.311Z,45.83
2018-04-02T01:27:37.841Z,44.83
2018-04-02T01:30:05.393Z,45.70
2018-04-02T01:32:32.956Z,49.10
2018-04-02T01:35:00.512Z,43.90
2018-04-02T01:37:28.026Z,41.23
2018-04-02T01:39:56.309Z,46.43
2018-04-02T01:42:25.332Z,42.93
2018-04-02T01:44:53.506Z,49.17
2018-04-02T01:47:21.050Z,42.87
2018-04-02T01:49:50.197Z,44.77
2018-04-02T01:52:17.718Z,44.83
2018-04-02T01:54:45.257Z,46.07
2018-04-02T01:57:17.905Z,43.30
2018-04-02T01:59:45.441Z,48.67
2018-04-02T02:02:13.569Z,49.07
2018-04-02T02:04:41.878Z,46.20
2018-04-02T02:07:09.413Z,46.43
2018-04-02T02:09:37.720Z,52.37
2018-04-02T02:12:05.244Z,48.77
2018-04-02T02:14:34.773Z,58.43
2018-04-02T02:17:02.311Z,55.87
2018-04-02T02:19:30.593Z,50.73
2018-04-02T02:21:59.218Z,45.43
2018-04-02T02:24:26.740Z,52.40
2018-04-02T02:26:55.856Z,55.30
2018-04-02T02:29:23.402Z,57.63
2018-04-02T02:31:54.949Z,50.30
2018-04-02T02:34:27.372Z,50.53
2018-04-02T02:36:55.172Z,49.27
2018-04-02T02:39:23.472Z,53.23
2018-04-02T02:41:51.827Z,51.17
2018-04-02T02:44:24.185Z,47.03
2018-04-02T02:46:59.855Z,49.20
2018-04-02T02:49:28.191Z,49.53
2018-04-02T02:51:55.746Z,54.03
2018-04-02T02:54:23.268Z,50.67
2018-04-02T02:56:50.790Z,48.07
2018-04-02T02:59:18.332Z,49.80
2018-04-02T03:01:45.859Z,48.33
2018-04-02T03:04:13.398Z,51.33
2018-04-02T03:06:42.626Z,48.23
2018-04-02T03:09:10.159Z,51.27
2018-04-02T03:11:37.685Z,50.30
2018-04-02T03:14:05.218Z,48.93
2018-04-02T03:16:36.633Z,50.47
2018-04-02T03:19:04.878Z,54.10
2018-04-02T03:21:32.702Z,48.13
2018-04-02T03:24:00.222Z,46.00
2018-04-02T03:26:31.182Z,48.53
2018-04-02T03:28:59.598Z,49.90
2018-04-02T03:31:27.122Z,53.23
2018-04-02T03:33:54.641Z,54.33
2018-04-02T03:36:27.285Z,48.03
2018-04-02T03:38:54.797Z,46.73
2018-04-02T03:41:23.123Z,47.17
2018-04-02T03:43:54.658Z,46.87
2018-04-02T03:46:22.529Z,47.43
2018-04-02T03:48:50.718Z,47.57
2018-04-02T03:51:18.239Z,50.83
2018-04-02T03:53:46.286Z,50.17
2018-04-02T03:56:13.835Z,48.33
2018-04-02T03:58:41.372Z,49.90
2018-04-02T04:01:08.908Z,44.43
2018-04-02T04:03:36.575Z,46.97
2018-04-02T04:06:05.917Z,47.30
2018-04-02T04:08:33.464Z,49.50
2018-04-02T04:11:01.020Z,44.33
2018-04-02T04:13:28.604Z,49.50
2018-04-02T04:15:56.320Z,47.60
2018-04-02T04:18:23.890Z,45.70
2018-04-02T04:20:52.209Z,46.10
2018-04-02T04:23:19.753Z,46.47
2018-04-02T04:25:47.277Z,45.33
2018-04-02T04:28:14.817Z,45.23
2018-04-02T04:30:46.263Z,48.23
2018-04-02T04:33:14.587Z,49.97
2018-04-02T04:35:42.110Z,47.50
2018-04-02T04:38:09.625Z,49.83
2018-04-02T04:40:37.157Z,52.47
2018-04-02T04:43:04.877Z,48.37
2018-04-02T04:45:33.160Z,44.97
2018-04-02T04:48:01.458Z,53.83
2018-04-02T04:50:29.509Z,57.83
2018-04-02T04:52:57.801Z,51.60
2018-04-02T04:55:30.508Z,50.40
2018-04-02T04:57:58.069Z,54.77
2018-04-02T05:00:26.108Z,48.10
2018-04-02T05:02:53.629Z,53.70
2018-04-02T05:05:21.175Z,50.33
2018-04-02T05:07:48.706Z,50.43
2018-04-02T05:10:16.246Z,53.77
2018-04-02T05:12:43.762Z,55.37
2018-04-02T05:15:11.347Z,53.73
2018-04-02T05:17:40.386Z,48.13
2018-04-02T05:20:08.219Z,51.13
2018-04-02T05:22:36.154Z,49.57
2018-04-02T05:25:03.678Z,54.30
2018-04-02T05:27:31.214Z,53.67
2018-04-02T05:29:58.727Z,56.67
2018-04-02T05:32:26.288Z,55.50
2018-04-02T05:34:53.803Z,51.63
2018-04-02T05:37:21.360Z,54.87
2018-04-02T05:39:48.895Z,51.43
2018-04-02T05:42:17.232Z,55.87
2018-04-02T05:44:44.743Z,52.27
2018-04-02T05:47:12.267Z,50.07
2018-04-02T05:49:43.758Z,47.87
2018-04-02T05:52:11.334Z,57.90
2018-04-02T05:54:43.373Z,52.67
2018-04-02T05:57:11.647Z,55.87
2018-04-02T05:59:40.953Z,50.63
2018-04-02T06:02:12.224Z,55.53
2018-04-02T06:04:39.745Z,55.33
2018-04-02T06:07:12.433Z,58.33
2018-04-02T06:09:40.741Z,50.43
2018-04-02T06:12:08.265Z,48.77
2018-04-02T06:14:40.714Z,52.10
2018-04-02T06:17:08.746Z,47.63
2018-04-02T06:19:36.264Z,45.73
2018-04-02T06:22:03.785Z,47.47
2018-04-02T06:34:21.728Z,44.13
2018-04-02T06:36:50.085Z,46.20
2018-04-02T06:39:18.154Z,43.03
2018-04-02T06:41:45.706Z,44.77
2018-04-02T06:44:13.251Z,45.27
2018-04-02T06:59:40.827Z,47.50
2018-04-02T07:02:08.964Z,48.07
2018-04-02T07:04:40.529Z,49.17
2018-04-02T07:20:08.088Z,52.20
2018-04-02T07:35:36.429Z,56.10
2018-04-02T07:38:04.801Z,53.30
2018-04-02T07:40:33.132Z,53.23
2018-04-02T07:43:00.682Z,55.23
2018-04-02T07:45:28.205Z,52.60
2018-04-02T07:47:55.747Z,52.97
2018-04-02T07:50:24.743Z,54.40
2018-04-02T07:52:57.031Z,54.23
2018-04-02T07:55:24.536Z,48.67
2018-04-02T07:57:52.086Z,48.37
2018-04-02T08:00:20.369Z,47.33
2018-04-02T08:02:51.969Z,49.43
2018-04-02T08:05:20.264Z,50.27
2018-04-02T08:07:48.614Z,50.60
2018-04-02T08:10:16.929Z,51.67
2018-04-02T08:12:44.445Z,49.17
2018-04-02T08:15:12.775Z,54.43
2018-04-02T08:17:40.314Z,54.30
2018-04-02T08:20:08.273Z,49.73
2018-04-02T08:22:36.399Z,55.27
2018-04-02T08:25:05.530Z,55.33
2018-04-02T08:27:34.147Z,51.80
2018-04-02T08:30:01.742Z,54.83
2018-04-02T08:32:29.269Z,55.97
2018-04-02T08:34:56.806Z,55.77
2018-04-02T08:37:24.402Z,55.50
2018-04-02T08:39:53.068Z,52.93
2018-04-02T08:42:20.612Z,50.70
2018-04-02T08:44:48.724Z,53.03
2018-04-02T08:47:17.090Z,59.23
2018-04-02T08:49:44.670Z,63.47
2018-04-02T08:52:12.295Z,61.70
2018-04-02T08:54:40.258Z,60.10
2018-04-02T08:57:08.389Z,50.87
2018-04-02T08:59:36.070Z,51.27
2018-04-02T09:02:08.376Z,49.67
2018-04-02T09:04:36.602Z,53.47
2018-04-02T09:07:08.151Z,49.37
2018-04-02T09:09:35.685Z,51.97
2018-04-02T09:12:03.924Z,49.93
2018-04-02T09:14:31.537Z,56.80
2018-04-02T09:19:09.282Z,63.87
2018-04-02T09:21:38.189Z,63.33
2018-04-02T09:24:06.315Z,63.77
2018-04-02T09:26:33.858Z,61.57
2018-04-02T09:29:02.653Z,61.43
2018-04-02T09:31:30.196Z,63.33
2018-04-02T09:33:57.737Z,63.93
2018-04-02T09:36:25.732Z,66.07
2018-04-02T09:38:53.262Z,67.03
2018-04-02T09:41:20.789Z,69.27
2018-04-02T09:43:48.352Z,67.33
2018-04-02T09:56:02.413Z,77.07
2018-04-02T09:58:29.948Z,78.67
2018-04-02T10:01:00.862Z,74.27
2018-04-02T10:03:39.025Z,78.27
2018-04-02T10:06:06.612Z,76.23
2018-04-02T10:08:34.412Z,76.13
2018-04-02T10:11:02.714Z,71.97
2018-04-02T10:13:30.238Z,80.10
2018-04-02T10:15:58.534Z,79.60
2018-04-02T10:18:26.399Z,77.03
2018-04-02T10:20:54.010Z,72.57
2018-04-02T10:23:21.578Z,74.47
2018-04-02T10:25:49.957Z,73.27
2018-04-02T10:28:17.526Z,70.73
2018-04-02T10:30:51.334Z,66.97
2018-04-02T10:33:18.886Z,74.80
2018-04-02T10:35:46.493Z,68.63
2018-04-02T10:51:14.117Z,59.23
2018-04-02T10:53:47.402Z,60.10
2018-04-02T10:56:14.905Z,58.07
2018-04-02T10:58:42.449Z,64.03
2018-04-02T11:01:10.767Z,53.63
2018-04-02T11:03:38.302Z,53.60
2018-04-02T11:06:05.861Z,52.83
2018-04-02T11:08:33.390Z,53.70
2018-04-02T11:11:01.705Z,51.50
2018-04-02T11:13:29.259Z,56.33
2018-04-02T11:15:56.806Z,51.73
2018-04-02T11:18:28.283Z,50.90
2018-04-02T11:20:55.856Z,50.47
2018-04-02T11:23:23.402Z,51.70
2018-04-02T11:25:50.958Z,54.83
2018-04-02T11:28:18.487Z,52.67
2018-04-02T11:30:46.858Z,52.67
2018-04-02T11:33:14.410Z,49.97
2018-04-02T11:35:41.994Z,48.10
2018-04-02T11:38:11.047Z,44.47
2018-04-02T11:40:39.393Z,48.87
2018-04-02T11:43:07.760Z,47.20
2018-04-02T11:45:35.294Z,46.23
2018-04-02T11:48:03.670Z,43.63
2018-04-02T11:50:32.139Z,43.47
2018-04-02T11:53:00.105Z,47.57
2018-04-02T11:55:28.414Z,45.10
2018-04-02T11:57:56.860Z,44.30
2018-04-02T12:00:24.525Z,42.43
2018-04-02T12:02:52.763Z,44.90
2018-04-02T12:05:20.750Z,43.60
2018-04-02T12:07:48.269Z,43.73
2018-04-02T12:10:16.565Z,38.77
2018-04-02T12:25:44.451Z,35.47
2018-04-02T12:28:12.611Z,32.43
2018-04-02T12:30:40.556Z,34.13
2018-04-02T12:33:08.725Z,31.97
2018-04-02T12:35:36.983Z,33.90
2018-04-02T12:38:05.303Z,31.63
2018-04-02T12:40:34.005Z,31.17
2018-04-02T12:43:02.282Z,30.77
2018-04-02T12:46:40.597Z,31.50
2018-04-02T12:49:08.401Z,33.70
2018-04-02T12:51:36.637Z,32.60
2018-04-02T12:54:04.242Z,34.87
2018-04-02T12:56:31.849Z,31.90
2018-04-02T12:59:00.323Z,33.40
2018-04-02T13:01:27.856Z,30.63
2018-04-02T13:03:56.594Z,37.73
2018-04-02T13:06:24.323Z,36.83
2018-04-02T13:08:51.857Z,35.17
2018-04-02T13:11:24.631Z,29.80
2018-04-02T13:13:52.171Z,29.63
2018-04-02T13:16:20.539Z,34.33
2018-04-02T13:18:48.077Z,35.23
2018-04-02T13:21:15.619Z,32.80
2018-04-02T13:23:47.108Z,35.70
2018-04-02T13:26:14.704Z,33.67
2018-04-02T13:28:46.742Z,25.87
2018-04-02T13:31:14.306Z,27.97
2018-04-02T13:33:42.107Z,26.63
2018-04-02T13:36:10.419Z,27.67
2018-04-02T13:38:38.003Z,27.20
2018-04-02T13:41:05.994Z,25.17
2018-04-02T13:43:33.629Z,23.20
2018-04-02T13:48:05.537Z,23.30
2018-04-02T13:50:33.041Z,24.77
2018-04-02T13:53:04.651Z,22.83
2018-04-02T13:55:33.124Z,22.93
2018-04-02T13:58:01.573Z,22.27
2018-04-02T14:00:29.103Z,20.70
2018-04-02T14:02:56.631Z,23.67
2018-04-02T14:05:24.215Z,22.83
2018-04-02T14:07:52.504Z,23.53
2018-04-02T14:10:20.051Z,22.80
2018-04-02T14:12:48.367Z,25.07
2018-04-02T14:15:15.906Z,26.47
2018-04-02T14:17:43.445Z,27.87
2018-04-02T14:20:11.875Z,27.00
2018-04-02T14:22:43.436Z,26.57
2018-04-02T14:25:15.054Z,27.70
2018-04-02T14:27:42.993Z,22.83
2018-04-02T14:30:12.017Z,25.63
2018-04-02T14:32:40.069Z,29.33
2018-04-02T14:35:08.361Z,30.47
2018-04-02T14:37:35.909Z,24.87
2018-04-02T14:40:04.198Z,26.47
2018-04-02T14:42:32.178Z,24.97
2018-04-02T14:44:59.758Z,26.33
2018-04-02T14:47:27.308Z,25.10
2018-04-02T14:49:58.923Z,23.10
2018-04-02T14:52:27.250Z,23.70
2018-04-02T14:54:54.777Z,23.67
2018-04-02T14:57:22.315Z,25.50
2018-04-02T14:59:50.626Z,21.80
2018-04-02T15:02:18.836Z,22.00
2018-04-02T15:04:46.399Z,22.63
2018-04-02T15:07:13.952Z,23.60
2018-04-02T15:09:41.491Z,23.20
2018-04-02T15:12:09.034Z,22.03
2018-04-02T15:14:36.576Z,24.23
2018-04-02T15:17:05.873Z,22.50
2018-04-02T15:19:34.185Z,20.73
2018-04-02T15:22:01.710Z,23.30
2018-04-02T15:24:30.016Z,21.40
2018-04-02T15:26:57.545Z,26.10
2018-04-02T15:29:25.850Z,24.27
2018-04-02T15:31:53.386Z,18.53
2018-04-02T15:34:22.287Z,19.87
2018-04-02T15:36:49.850Z,23.53
2018-04-02T15:39:17.370Z,21.73
2018-04-02T15:41:44.892Z,19.53
2018-04-02T15:44:12.455Z,20.03
2018-04-02T15:46:40.007Z,19.63
2018-04-02T15:49:07.562Z,20.10
2018-04-02T15:51:35.106Z,17.37
2018-04-02T15:54:02.683Z,20.00
2018-04-02T15:56:30.244Z,18.77
2018-04-02T15:58:57.882Z,18.33
2018-04-02T16:01:26.206Z,21.13
2018-04-02T16:03:53.752Z,21.83
2018-04-02T16:06:21.302Z,20.57
2018-04-02T16:11:23.688Z,19.40
2018-04-02T16:13:51.962Z,20.07
2018-04-02T16:16:19.571Z,18.23
2018-04-02T16:18:50.422Z,17.83
2018-04-02T16:21:18.037Z,19.83
2018-04-02T16:23:45.608Z,18.97
2018-04-02T16:26:13.436Z,16.53
2018-04-02T16:28:43.241Z,20.10
2018-04-02T16:31:11.570Z,18.53
2018-04-02T16:33:40.390Z,17.07
2018-04-02T16:36:07.895Z,19.03
2018-04-02T16:38:35.424Z,19.27
2018-04-02T16:41:03.845Z,19.77
2018-04-02T16:43:31.414Z,19.60
2018-04-02T16:45:58.944Z,21.03
2018-04-02T16:48:26.479Z,21.00
2018-04-02T16:50:54.884Z,18.57
2018-04-02T16:53:22.778Z,20.10
2018-04-02T16:55:50.329Z,21.03
2018-04-02T16:58:17.862Z,22.30
2018-04-02T17:00:46.167Z,21.00
2018-04-02T17:03:13.702Z,20.47
2018-04-02T17:05:41.995Z,19.93
2018-04-02T17:08:09.522Z,20.00
2018-04-02T17:10:37.820Z,19.07
2018-04-02T17:13:05.405Z,20.67
2018-04-02T17:15:33.784Z,23.67
2018-04-02T17:18:01.391Z,19.13
2018-04-02T17:20:29.006Z,20.73
2018-04-02T17:22:56.584Z,22.57
2018-04-02T17:25:24.388Z,26.70
2018-04-02T17:27:52.714Z,29.80
2018-04-02T17:30:20.292Z,31.67
2018-04-02T17:32:47.869Z,34.00
2018-04-02T17:35:16.186Z,40.17
2018-04-02T17:37:43.725Z,32.60
2018-04-02T17:40:12.041Z,31.53
2018-04-02T17:42:39.582Z,33.27
2018-04-02T17:45:07.123Z,33.27
2018-04-02T17:47:35.428Z,35.10
2018-04-02T17:50:03.869Z,33.67
2018-04-02T17:52:31.460Z,33.33
2018-04-02T17:54:59.004Z,33.77
2018-04-02T17:57:27.342Z,32.43
2018-04-02T17:59:54.885Z,34.67
2018-04-02T18:02:22.410Z,33.27
2018-04-02T18:04:50.746Z,31.77
2018-04-02T18:07:18.283Z,30.43
2018-04-02T18:09:45.810Z,29.60
2018-04-02T18:12:14.126Z,31.40
2018-04-02T18:14:41.664Z,34.10
2018-04-02T18:17:09.224Z,33.07
2018-04-02T18:19:36.843Z,31.60
2018-04-02T18:22:04.923Z,33.87
2018-04-02T18:24:33.266Z,32.03
2018-04-02T18:27:01.531Z,32.10
2018-04-02T18:29:29.065Z,33.03
2018-04-02T18:31:56.611Z,34.07
2018-04-02T18:34:24.898Z,33.67
2018-04-02T18:36:52.449Z,36.60
2018-04-02T18:39:20.747Z,34.23
2018-04-02T18:54:48.326Z,36.47
2018-04-02T18:57:19.532Z,37.57
2018-04-02T18:59:47.071Z,37.03
2018-04-02T19:02:15.449Z,36.37
2018-04-02T19:04:43.776Z,37.70
2018-04-02T19:07:11.338Z,34.70
2018-04-02T19:09:38.883Z,38.20
2018-04-02T19:12:07.013Z,39.70
2018-04-02T19:14:34.576Z,35.80
2018-04-02T19:17:02.886Z,37.70
2018-04-02T19:19:30.441Z,38.00
2018-04-02T19:21:58.627Z,36.47
2018-04-02T19:24:26.845Z,34.37
2018-04-02T19:26:55.907Z,37.80
2018-04-02T19:29:27.794Z,34.97
2018-04-02T19:31:55.324Z,35.40
2018-04-02T19:34:22.889Z,35.37
2018-04-02T19:36:50.451Z,34.90
2018-04-02T19:39:18.038Z,34.43
2018-04-02T19:41:45.607Z,35.10
2018-04-02T19:44:13.139Z,38.43
2018-04-02T19:46:40.697Z,37.80
2018-04-02T19:49:08.249Z,35.50
2018-04-02T19:51:36.213Z,34.17
2018-04-02T19:54:03.829Z,35.47
2018-04-02T19:56:31.945Z,34.20
2018-04-02T19:58:59.494Z,34.43
2018-04-02T20:01:27.027Z,33.27
2018-04-02T20:03:55.437Z,32.03
2018-04-02T20:06:23.110Z,35.47
2018-04-02T20:08:50.689Z,34.70
2018-04-02T20:11:19.182Z,37.90
2018-04-02T20:13:47.852Z,36.33
2018-04-02T20:16:15.473Z,38.53
2018-04-02T20:18:43.781Z,37.13
2018-04-02T20:21:11.331Z,34.80
2018-04-02T20:23:38.874Z,34.57
2018-04-02T20:26:07.214Z,36.53
2018-04-02T20:28:38.607Z,33.70
2018-04-02T20:31:06.150Z,39.87
2018-04-02T20:33:34.461Z,33.20
2018-04-02T20:36:02.016Z,32.33
2018-04-02T20:38:29.551Z,32.73
2018-04-02T20:40:57.878Z,30.63
2018-04-02T20:43:25.404Z,24.53
2018-04-02T20:45:52.996Z,24.67
2018-04-02T20:48:21.204Z,23.50
2018-04-02T20:50:49.530Z,21.33
2018-04-02T20:53:17.129Z,21.97
2018-04-02T20:55:44.734Z,20.90
2018-04-02T20:58:12.298Z,18.17
2018-04-02T21:00:39.862Z,17.33
2018-04-02T21:03:07.419Z,19.30
2018-04-02T21:05:34.964Z,16.07
2018-04-02T21:08:03.257Z,16.03
2018-04-02T21:10:30.808Z,17.13
2018-04-02T21:12:58.359Z,13.97
2018-04-02T21:15:27.545Z,16.10
2018-04-02T21:17:55.909Z,21.30
2018-04-02T21:20:24.018Z,15.37
2018-04-02T21:22:52.371Z,14.27
2018-04-02T21:25:19.929Z,13.93
2018-04-02T21:27:47.440Z,15.30
2018-04-02T21:30:14.997Z,13.33
2018-04-02T21:32:42.504Z,13.47
2018-04-02T21:35:10.038Z,14.40
2018-04-02T21:37:38.162Z,14.17
2018-04-02T21:40:06.459Z,13.97
2018-04-02T21:42:34.002Z,14.97
2018-04-02T21:45:01.549Z,13.90
2018-04-02T21:47:29.909Z,12.23
2018-04-02T21:49:57.397Z,12.27
2018-04-02T21:52:25.870Z,10.20
2018-04-02T21:54:54.151Z,9.03
2018-04-02T21:57:22.432Z,8.27
2018-04-02T21:59:54.948Z,6.67
2018-04-02T22:02:22.467Z,7.00
2018-04-02T22:04:50.760Z,6.33
2018-04-02T22:07:20.897Z,8.67
2018-04-02T22:09:48.426Z,8.10
2018-04-02T22:12:17.667Z,6.83
2018-04-02T22:14:45.208Z,6.37
2018-04-02T22:17:12.741Z,5.83
2018-04-02T22:19:41.056Z,7.47
2018-04-02T22:22:08.582Z,5.70
2018-04-02T22:24:36.141Z,6.17
2018-04-02T22:27:04.441Z,6.63
2018-04-02T22:29:31.961Z,6.40
2018-04-02T22:32:00.292Z,7.23
2018-04-02T22:34:27.814Z,6.97
2018-04-02T22:36:56.103Z,7.43
2018-04-02T22:39:23.625Z,7.67
2018-04-02T22:41:51.207Z,7.37
2018-04-02T22:44:19.477Z,6.17
2018-04-02T22:46:47.036Z,6.87
2018-04-02T22:59:00.354Z,5.83
2018-04-02T23:01:27.857Z,7.23
2018-04-02T23:03:55.662Z,6.77
2018-04-02T23:06:23.940Z,6.83
2018-04-02T23:08:52.235Z,8.87
2018-04-02T23:11:19.760Z,6.40
2018-04-02T23:13:47.293Z,6.77
2018-04-02T23:16:14.809Z,6.70
2018-04-02T23:18:42.333Z,6.93
2018-04-02T23:21:09.867Z,7.30
2018-04-02T23:23:37.365Z,7.57
2018-04-02T23:26:05.657Z,7.07
2018-04-02T23:28:34.793Z,7.70
2018-04-02T23:31:02.391Z,7.50
2018-04-02T23:33:29.974Z,7.53
2018-04-02T23:35:57.500Z,9.57
2018-04-02T23:38:25.425Z,8.23
2018-04-02T23:40:52.948Z,8.33
2018-04-02T23:43:21.247Z,7.77
2018-04-02T23:45:48.772Z,8.50
2018-04-02T23:48:16.332Z,9.30
2018-04-02T23:50:43.858Z,8.60
2018-04-02T23:53:11.399Z,9.07
2018-04-02T23:55:39.381Z,9.13
2018-04-02T23:58:06.927Z,10.27
